CheckWX is a tool to help pilots better visualize weather data.  It is not intended as a substitute for an official pre-flight weather briefing.

15:49:41 UTC

KFLP METAR
Marion County Regional Airport
Flippin, Arkansas, USA
Current

54 mins ago

KFLP 261456Z AUTO 25005KT 10SM CLR 27/18 A3011 RMK AO2 SLP188 T02670183 51024
Observed
May-26 @ 14:56 UTC
Wind
  • 250° at 5 KTS
Visibility
10 SM
Flight Rules
VFR
Cloud Levels
  • Clear skies
Temperature
27°C / 81°F
Dewpoint
18°C / 64°F
Heat Index
28°C / 83°F
Humidity
58%
Altimeter
30.11" Hg
Pressure
1019.62 hPa
Previous

2 hours ago

KFLP 261356Z AUTO VRB05KT 10SM CLR 25/17 A3009 RMK AO2 SLP182 T02500172
Observed
May-26 @ 13:56 UTC
Wind
  • Variable at 5 KTS
Visibility
10 SM
Flight Rules
VFR
Cloud Levels
  • Clear skies
Temperature
25°C / 77°F
Dewpoint
17°C / 63°F
Humidity
61%
Altimeter
30.09" Hg
Pressure
1018.92 hPa
Previous

3 hours ago

KFLP 261256Z AUTO 25003KT 10SM CLR 23/17 A3007 RMK AO2 SLP175 T02330172
Observed
May-26 @ 12:56 UTC
Wind
  • 250° at 3 KTS
Visibility
10 SM
Flight Rules
VFR
Cloud Levels
  • Clear skies
Temperature
23°C / 73°F
Dewpoint
17°C / 63°F
Humidity
69%
Altimeter
30.07" Hg
Pressure
1018.32 hPa